createdAt,value
2023-12-30T00:00:49.422Z,84.71
2023-12-30T00:05:54.386Z,84.54
2023-12-30T00:10:57.672Z,84.77
2023-12-30T00:16:01.024Z,85.12
2023-12-30T00:21:05.929Z,85.23
2023-12-30T00:26:09.317Z,85.15
2023-12-30T00:31:22.350Z,85.01
2023-12-30T00:36:27.103Z,85.27
2023-12-30T00:41:30.426Z,84.94
2023-12-30T00:46:33.986Z,84.95
2023-12-30T00:51:39.052Z,85.21
2023-12-30T00:56:42.650Z,84.74
2023-12-30T01:01:46.063Z,84.77
2023-12-30T01:06:52.100Z,85.00
2023-12-30T01:11:55.563Z,84.96
2023-12-30T01:16:59.167Z,85.13
2023-12-30T01:22:03.973Z,85.23
2023-12-30T01:27:07.375Z,85.50
2023-12-30T01:32:10.897Z,85.10
2023-12-30T01:37:15.993Z,85.26
2023-12-30T01:42:19.419Z,84.76
2023-12-30T01:47:23.223Z,85.13
2023-12-30T01:52:28.550Z,85.06
2023-12-30T01:57:32.471Z,85.42
2023-12-30T02:02:35.867Z,85.48
2023-12-30T02:07:40.759Z,86.09
2023-12-30T02:12:44.686Z,85.63
2023-12-30T02:17:49.131Z,85.97
2023-12-30T02:22:54.722Z,86.05
2023-12-30T02:27:58.251Z,85.76
2023-12-30T02:33:02.023Z,85.71
2023-12-30T02:38:07.204Z,85.77
2023-12-30T02:43:10.811Z,85.80
2023-12-30T02:48:14.259Z,86.07
2023-12-30T02:53:19.098Z,86.18
2023-12-30T02:58:22.454Z,86.50
2023-12-30T03:03:25.784Z,86.97
2023-12-30T03:08:30.434Z,86.74
2023-12-30T03:13:33.744Z,86.69
2023-12-30T03:18:37.321Z,86.75
2023-12-30T03:23:42.425Z,86.86
2023-12-30T03:28:46.267Z,87.20
2023-12-30T03:33:49.986Z,86.93
2023-12-30T03:38:55.767Z,87.18
2023-12-30T03:43:59.174Z,87.57
2023-12-30T03:49:02.767Z,87.14
2023-12-30T03:54:08.065Z,87.62
2023-12-30T03:59:11.512Z,87.21
2023-12-30T04:04:14.899Z,87.90
2023-12-30T04:09:19.755Z,88.27
2023-12-30T04:14:23.535Z,87.68
2023-12-30T04:19:27.022Z,88.23
2023-12-30T04:24:31.699Z,88.13
2023-12-30T04:29:35.113Z,87.94
2023-12-30T04:34:38.512Z,88.37
2023-12-30T04:39:43.271Z,88.37
2023-12-30T04:44:46.793Z,87.78
2023-12-30T04:49:50.339Z,87.70
2023-12-30T04:54:55.653Z,87.86
2023-12-30T04:59:58.971Z,87.65
2023-12-30T05:05:02.314Z,87.59
2023-12-30T05:10:08.761Z,87.02
2023-12-30T05:15:14.823Z,86.88
2023-12-30T05:20:19.039Z,87.04
2023-12-30T05:25:24.380Z,86.88
2023-12-30T05:30:30.098Z,86.74
2023-12-30T05:35:34.328Z,86.13
2023-12-30T05:40:39.512Z,87.27
2023-12-30T05:45:47.635Z,86.47
2023-12-30T05:50:51.183Z,86.37
2023-12-30T05:55:56.004Z,86.65
2023-12-30T06:00:59.659Z,86.11
2023-12-30T06:06:03.009Z,85.71
2023-12-30T06:11:08.230Z,85.61
2023-12-30T06:16:12.055Z,86.39
2023-12-30T06:21:15.561Z,86.70
2023-12-30T06:26:20.549Z,85.96
2023-12-30T06:31:24.071Z,86.07
2023-12-30T06:36:27.442Z,86.54
2023-12-30T06:41:32.084Z,86.30
2023-12-30T06:46:36.028Z,86.47
2023-12-30T06:51:39.433Z,86.80
2023-12-30T06:56:45.412Z,86.34
2023-12-30T07:01:49.562Z,86.08
2023-12-30T07:06:53.095Z,85.78
2023-12-30T07:11:58.044Z,85.40
2023-12-30T07:17:01.253Z,85.47
2023-12-30T07:22:05.194Z,84.86
2023-12-30T07:27:10.149Z,84.79
2023-12-30T07:32:13.392Z,85.41
2023-12-30T07:37:16.813Z,85.09
2023-12-30T07:42:23.538Z,84.79
2023-12-30T07:47:28.099Z,84.72
2023-12-30T07:52:31.678Z,84.62
2023-12-30T07:57:36.582Z,85.18
2023-12-30T08:02:42.559Z,84.82
2023-12-30T08:07:46.321Z,84.70
2023-12-30T08:12:51.795Z,84.00
2023-12-30T08:17:55.174Z,83.99
2023-12-30T08:22:58.631Z,84.61
2023-12-30T08:28:03.442Z,84.67
2023-12-30T08:33:10.005Z,83.92
2023-12-30T08:38:13.788Z,83.74
2023-12-30T08:43:18.566Z,84.41
2023-12-30T08:48:22.118Z,84.65
2023-12-30T08:53:26.524Z,85.11
2023-12-30T08:58:31.340Z,84.86
2023-12-30T09:03:34.826Z,84.63
2023-12-30T09:08:38.753Z,84.27
2023-12-30T09:13:43.750Z,84.38
2023-12-30T09:18:49.369Z,84.87
2023-12-30T09:23:53.620Z,84.62
2023-12-30T09:28:58.792Z,84.05
2023-12-30T09:34:02.267Z,84.37
2023-12-30T09:39:07.275Z,84.14
2023-12-30T09:44:12.684Z,84.33
2023-12-30T09:49:16.393Z,84.26
2023-12-30T09:54:20.695Z,83.77
2023-12-30T09:59:27.677Z,83.92
2023-12-30T10:04:31.357Z,83.78
2023-12-30T10:09:34.712Z,84.49
2023-12-30T10:14:39.529Z,83.84
2023-12-30T10:19:43.035Z,83.92
2023-12-30T10:24:46.396Z,83.74
2023-12-30T10:30:00.652Z,83.52
2023-12-30T10:35:05.526Z,83.49
2023-12-30T10:40:11.031Z,83.49
2023-12-30T10:45:16.440Z,83.36
2023-12-30T10:50:21.590Z,83.31
2023-12-30T10:55:27.608Z,83.21
2023-12-30T11:00:37.470Z,82.82
2023-12-30T11:05:43.554Z,82.65
2023-12-30T11:10:47.293Z,82.07
2023-12-30T11:15:52.397Z,82.15
2023-12-30T11:20:55.991Z,82.03
2023-12-30T11:26:01.553Z,81.46
2023-12-30T11:31:06.711Z,81.46
2023-12-30T11:36:10.645Z,81.32
2023-12-30T11:41:13.930Z,81.05
2023-12-30T11:46:18.733Z,81.18
2023-12-30T11:51:23.081Z,80.93
2023-12-30T11:56:26.647Z,81.02
2023-12-30T12:01:33.946Z,80.87
2023-12-30T12:06:37.537Z,81.08
2023-12-30T12:11:41.020Z,80.82
2023-12-30T12:16:47.565Z,80.94
2023-12-30T12:21:51.152Z,80.39
2023-12-30T12:26:55.396Z,79.92
2023-12-30T12:32:00.662Z,80.27
2023-12-30T12:37:04.595Z,79.31
2023-12-30T12:42:18.332Z,79.15
2023-12-30T12:47:28.403Z,79.38
2023-12-30T12:52:31.809Z,79.10
2023-12-30T12:57:35.096Z,78.83
2023-12-30T13:02:39.847Z,78.57
2023-12-30T13:07:44.830Z,77.85
2023-12-30T13:12:48.711Z,77.76
2023-12-30T13:17:55.243Z,78.05
2023-12-30T13:22:59.129Z,77.71
2023-12-30T13:28:04.179Z,77.11
2023-12-30T13:33:12.023Z,76.73
2023-12-30T13:38:17.263Z,77.12
2023-12-30T13:43:22.012Z,77.01
2023-12-30T13:48:47.329Z,77.08
2023-12-30T13:53:51.233Z,76.76
2023-12-30T13:58:58.502Z,76.88
2023-12-30T14:04:04.821Z,76.85
2023-12-30T14:09:24.179Z,76.74
2023-12-30T14:14:28.243Z,76.72
2023-12-30T14:19:33.225Z,76.14
2023-12-30T14:24:36.783Z,76.05
2023-12-30T14:29:40.629Z,75.83
2023-12-30T14:34:45.492Z,75.77
2023-12-30T14:39:49.269Z,76.09
2023-12-30T14:44:52.910Z,76.14
2023-12-30T14:49:58.056Z,75.73
2023-12-30T14:55:02.784Z,75.90
2023-12-30T15:00:10.332Z,75.62
2023-12-30T15:05:16.655Z,75.91
2023-12-30T15:10:20.345Z,76.05
2023-12-30T15:15:24.774Z,76.28
2023-12-30T15:20:29.727Z,76.44
2023-12-30T15:25:34.876Z,76.70
2023-12-30T15:30:38.537Z,76.60
2023-12-30T15:35:43.809Z,76.42
2023-12-30T15:40:47.384Z,76.50
2023-12-30T15:45:50.939Z,77.01
2023-12-30T15:50:56.064Z,76.97
2023-12-30T15:55:59.601Z,77.34
2023-12-30T16:01:03.423Z,77.50
2023-12-30T16:06:08.558Z,77.52
2023-12-30T16:11:12.073Z,78.07
2023-12-30T16:16:16.026Z,78.46
2023-12-30T16:21:20.937Z,78.54
2023-12-30T16:26:25.329Z,78.96
2023-12-30T16:31:28.987Z,78.93
2023-12-30T16:36:35.300Z,79.10
2023-12-30T16:41:38.655Z,79.58
2023-12-30T16:46:42.072Z,79.93
2023-12-30T16:51:47.176Z,80.30
2023-12-30T16:56:52.544Z,80.66
2023-12-30T17:01:56.052Z,80.68
2023-12-30T17:07:01.193Z,81.23
2023-12-30T17:12:04.722Z,81.32
2023-12-30T17:17:08.151Z,81.68
2023-12-30T17:22:14.126Z,81.52
2023-12-30T17:27:18.178Z,81.69
2023-12-30T17:32:21.982Z,82.22
2023-12-30T17:37:27.233Z,81.86
2023-12-30T17:42:30.790Z,82.08
2023-12-30T17:47:35.957Z,82.27
2023-12-30T17:52:40.761Z,81.79
2023-12-30T17:57:44.975Z,82.18
2023-12-30T18:02:51.705Z,82.06
2023-12-30T18:07:56.932Z,82.16
2023-12-30T18:13:00.589Z,82.35
2023-12-30T18:18:04.398Z,82.64
2023-12-30T18:23:09.370Z,82.61
2023-12-30T18:28:12.671Z,82.58
2023-12-30T18:33:16.277Z,83.01
2023-12-30T18:38:21.355Z,82.91
2023-12-30T18:43:25.331Z,82.88
2023-12-30T18:48:28.790Z,83.29
2023-12-30T18:53:34.045Z,82.53
2023-12-30T18:58:37.596Z,82.91
2023-12-30T19:03:41.024Z,82.86
2023-12-30T19:08:45.729Z,82.76
2023-12-30T19:13:49.452Z,82.83
2023-12-30T19:18:53.106Z,82.52
2023-12-30T19:23:59.669Z,82.74
2023-12-30T19:29:02.916Z,83.11
2023-12-30T19:34:06.258Z,83.03
2023-12-30T19:39:11.543Z,82.71
2023-12-30T19:44:15.599Z,82.91
2023-12-30T19:49:21.049Z,82.98
2023-12-30T19:54:26.775Z,82.45
2023-12-30T19:59:30.385Z,82.76
2023-12-30T20:04:33.835Z,82.78
2023-12-30T20:09:40.123Z,82.42
2023-12-30T20:14:43.680Z,82.94
2023-12-30T20:19:47.113Z,82.71
2023-12-30T20:24:52.327Z,82.81
2023-12-30T20:29:56.165Z,82.82
2023-12-30T20:34:59.544Z,82.82
2023-12-30T20:40:04.676Z,82.84
2023-12-30T20:45:08.461Z,83.10
2023-12-30T20:50:11.836Z,83.15
2023-12-30T20:55:17.294Z,82.74
2023-12-30T21:00:23.526Z,82.86
2023-12-30T21:05:27.009Z,82.85
2023-12-30T21:10:31.813Z,83.07
2023-12-30T21:15:35.112Z,82.78
2023-12-30T21:20:38.729Z,82.96
2023-12-30T21:25:49.267Z,82.63
2023-12-30T21:30:52.958Z,83.20
2023-12-30T21:35:56.849Z,83.28
2023-12-30T21:41:03.264Z,82.84
2023-12-30T21:46:06.691Z,82.92
2023-12-30T21:51:10.581Z,83.16
2023-12-30T21:56:15.338Z,82.89
2023-12-30T22:01:19.143Z,83.15
2023-12-30T22:06:23.163Z,83.10
2023-12-30T22:11:28.867Z,83.24
2023-12-30T22:16:32.879Z,82.81
2023-12-30T22:21:36.435Z,83.16
2023-12-30T22:26:41.169Z,83.29
2023-12-30T22:31:44.822Z,83.12
2023-12-30T22:36:48.499Z,82.85
2023-12-30T22:41:54.321Z,83.58
2023-12-30T22:46:57.904Z,83.51
2023-12-30T22:52:01.488Z,83.35
2023-12-30T22:57:09.833Z,83.41
2023-12-30T23:02:13.681Z,83.03
2023-12-30T23:07:17.758Z,83.47
2023-12-30T23:12:22.642Z,83.32
2023-12-30T23:17:26.399Z,83.50
2023-12-30T23:22:29.879Z,83.70
2023-12-30T23:27:35.074Z,83.27
2023-12-30T23:32:38.438Z,83.70
2023-12-30T23:37:42.024Z,84.27
2023-12-30T23:42:46.876Z,84.24
2023-12-30T23:47:51.418Z,84.02
2023-12-30T23:52:54.710Z,84.63
2023-12-30T23:57:59.881Z,84.28
